Time;durP1;ratioP1;P1;durP2;ratioP2;P2;SDS_P1;SDS_P2;PMS_P1;PMS_P2;Temp;Humidity;BMP_temperature;BMP_pressure;BME280_temperature;BME280_humidity;BME280_pressure;Samples;Min_cycle;Max_cycle;Signal;HPM_P1;HPM_P2
2022/04/08 00:00:06;;;;;;;6.03;0.90;;;8.00;99.90;;;;;;4195573;28;20875;-81
2022/04/08 00:02:08;;;;;;;10.23;1.40;;;7.90;99.90;;;;;;4197819;28;20477;-81
2022/04/08 00:04:11;;;;;;;4.83;0.90;;;7.90;99.90;;;;;;4190667;28;20487;-82
2022/04/08 00:06:13;;;;;;;3.47;0.70;;;8.00;99.90;;;;;;4199032;28;20465;-81
2022/04/08 00:08:15;;;;;;;7.07;1.10;;;7.90;99.90;;;;;;4200431;28;20826;-82
2022/04/08 00:10:18;;;;;;;5.50;1.20;;;8.00;99.90;;;;;;4200241;28;20470;-81
2022/04/08 00:12:20;;;;;;;5.40;1.03;;;7.90;99.90;;;;;;4196426;28;20486;-81
2022/04/08 00:14:22;;;;;;;6.73;1.00;;;8.10;99.90;;;;;;4199377;28;20653;-81
2022/04/08 00:16:24;;;;;;;3.57;0.80;;;7.90;99.90;;;;;;4198822;28;20485;-80
2022/04/08 00:18:26;;;;;;;6.27;1.30;;;7.90;99.90;;;;;;4200635;28;20445;-81
2022/04/08 00:20:30;;;;;;;4.17;1.20;;;8.00;99.90;;;;;;4199625;28;20891;-82
2022/04/08 00:22:33;;;;;;;3.27;0.80;;;8.00;99.90;;;;;;4194115;28;20834;-82
2022/04/08 00:24:35;;;;;;;3.60;1.23;;;8.00;99.90;;;;;;4197194;28;21053;-82
2022/04/08 00:26:37;;;;;;;7.23;1.13;;;8.00;99.90;;;;;;4200640;28;20868;-84
2022/04/08 00:28:39;;;;;;;3.57;0.87;;;8.00;99.90;;;;;;4188489;28;20518;-82
2022/04/08 00:30:40;;;;;;;5.53;0.93;;;8.00;99.90;;;;;;4198770;28;20483;-81
2022/04/08 00:32:42;;;;;;;4.77;0.90;;;8.00;99.90;;;;;;4201946;28;20501;-83
2022/04/08 00:34:44;;;;;;;3.60;0.80;;;8.00;99.90;;;;;;4201380;28;20542;-83
2022/04/08 00:36:49;;;;;;;4.90;0.80;;;8.00;99.90;;;;;;4198155;28;20561;-84
2022/04/08 00:38:51;;;;;;;3.67;1.23;;;8.00;99.90;;;;;;4209806;28;20468;-82
2022/04/08 00:40:53;;;;;;;3.67;0.90;;;8.00;99.90;;;;;;4210670;28;20463;-83
2022/04/08 00:42:55;;;;;;;7.70;1.30;;;8.10;99.90;;;;;;4198392;28;20485;-84
2022/04/08 00:44:59;;;;;;;2.63;0.90;;;8.00;99.90;;;;;;4198998;28;20910;-82
2022/04/08 00:47:00;;;;;;;4.70;1.10;;;8.00;99.90;;;;;;4196813;28;20469;-82
2022/04/08 00:49:03;;;;;;;3.60;1.00;;;8.00;99.90;;;;;;4198989;28;20460;-84
2022/04/08 00:51:06;;;;;;;4.70;1.37;;;8.00;99.90;;;;;;4197714;28;20534;-82
2022/04/08 00:53:10;;;;;;;3.57;0.87;;;7.90;99.90;;;;;;4199261;28;20475;-81
2022/04/08 00:55:12;;;;;;;2.37;1.00;;;7.90;99.90;;;;;;4195499;28;20476;-79
2022/04/08 00:57:14;;;;;;;5.03;1.00;;;7.90;99.90;;;;;;4197546;28;20470;-82
2022/04/08 00:59:17;;;;;;;3.37;1.10;;;7.90;99.90;;;;;;4198945;28;20462;-81
2022/04/08 01:01:19;;;;;;;3.53;0.90;;;8.00;99.90;;;;;;4198414;28;20483;-82
2022/04/08 01:03:21;;;;;;;4.10;1.00;;;7.80;99.90;;;;;;4197824;28;20561;-82
2022/04/08 01:05:26;;;;;;;3.00;0.70;;;7.80;99.90;;;;;;4190989;28;20481;-82
2022/04/08 01:07:29;;;;;;;1.23;0.83;;;7.90;99.90;;;;;;4202294;28;20477;-82
2022/04/08 01:09:32;;;;;;;8.60;1.17;;;7.90;99.90;;;;;;4197298;28;20545;-82
2022/04/08 01:11:35;;;;;;;5.97;1.23;;;7.80;99.90;;;;;;4206864;28;20468;-82
2022/04/08 01:13:37;;;;;;;7.90;1.50;;;7.90;99.90;;;;;;4206999;23;20502;-78
2022/04/08 01:15:38;;;;;;;4.93;1.00;;;7.80;99.90;;;;;;4196500;28;20747;-80
2022/04/08 01:17:40;;;;;;;2.77;1.10;;;7.70;99.90;;;;;;4186429;28;20455;-78
2022/04/08 01:19:42;;;;;;;1.80;0.70;;;7.70;99.90;;;;;;4195786;28;20462;-80
2022/04/08 01:21:43;;;;;;;7.53;1.30;;;7.60;99.90;;;;;;4194731;28;20829;-80
2022/04/08 01:23:48;;;;;;;2.13;0.90;;;8.30;99.90;;;;;;4198591;28;20499;-79
2022/04/08 01:25:51;;;;;;;4.53;1.03;;;7.60;99.90;;;;;;4215221;28;20988;-78
2022/04/08 01:27:53;;;;;;;4.50;0.87;;;8.40;99.90;;;;;;4214483;28;20461;-81
2022/04/08 01:29:55;;;;;;;4.40;1.10;;;7.60;99.90;;;;;;4206495;28;20456;-79
2022/04/08 01:31:57;;;;;;;3.33;1.00;;;7.40;99.90;;;;;;4209693;28;20483;-78
2022/04/08 01:33:58;;;;;;;2.33;1.00;;;7.40;99.90;;;;;;4226957;28;20530;-81
2022/04/08 01:36:00;;;;;;;1.77;0.77;;;7.40;99.90;;;;;;4216410;28;20462;-78
2022/04/08 01:38:02;;;;;;;2.93;1.10;;;7.40;99.90;;;;;;4224889;28;20514;-80
2022/04/08 01:40:04;;;;;;;5.93;1.53;;;7.30;99.90;;;;;;4223981;28;20514;-80
2022/04/08 01:42:08;;;;;;;4.90;1.20;;;7.30;99.90;;;;;;4216045;28;20456;-80
2022/04/08 01:44:10;;;;;;;3.00;1.60;;;7.30;99.90;;;;;;4218527;28;20487;-78
2022/04/08 01:46:11;;;;;;;2.83;1.20;;;7.30;99.90;;;;;;4214315;28;20472;-79
2022/04/08 01:48:13;;;;;;;5.53;1.07;;;7.30;99.90;;;;;;4216770;28;20557;-78
2022/04/08 01:50:18;;;;;;;3.50;1.50;;;7.30;99.90;;;;;;4216320;28;20451;-78
2022/04/08 01:52:20;;;;;;;3.57;1.40;;;7.30;99.90;;;;;;4213777;28;20453;-78
2022/04/08 01:54:22;;;;;;;3.47;1.10;;;7.30;99.90;;;;;;4208878;28;20997;-78
2022/04/08 01:56:23;;;;;;;2.83;1.80;;;7.30;99.90;;;;;;4207823;28;20961;-78
2022/04/08 01:58:27;;;;;;;1.83;1.20;;;7.30;99.90;;;;;;4213493;28;20461;-80
2022/04/08 02:00:28;;;;;;;9.40;1.80;;;7.30;99.90;;;;;;4218021;28;20467;-80
2022/04/08 02:02:30;;;;;;;2.40;1.10;;;7.40;99.90;;;;;;4217847;28;20892;-80
2022/04/08 02:04:32;;;;;;;6.87;1.30;;;7.30;99.90;;;;;;4218131;28;20488;-80
2022/04/08 02:06:36;;;;;;;3.33;1.00;;;7.40;99.90;;;;;;4200957;28;20469;-78
2022/04/08 02:08:39;;;;;;;2.07;1.10;;;7.30;99.90;;;;;;4216170;28;20827;-79
2022/04/08 02:10:40;;;;;;;3.93;1.30;;;7.30;99.90;;;;;;4216708;28;20456;-79
2022/04/08 02:12:42;;;;;;;2.87;1.17;;;7.30;99.90;;;;;;4217272;28;20467;-81
2022/04/08 02:14:46;;;;;;;3.80;1.20;;;7.30;99.90;;;;;;4217778;28;20451;-80
2022/04/08 02:16:47;;;;;;;5.80;1.00;;;7.30;99.90;;;;;;4213421;28;20451;-81
2022/04/08 02:18:50;;;;;;;4.27;1.17;;;7.30;99.90;;;;;;4218788;28;20452;-79
2022/04/08 02:20:52;;;;;;;3.67;1.10;;;7.20;99.90;;;;;;4218341;28;20844;-79
2022/04/08 02:22:54;;;;;;;3.83;1.30;;;7.20;99.90;;;;;;4217994;28;20480;-80
2022/04/08 02:24:56;;;;;;;5.13;0.97;;;7.20;99.90;;;;;;4211120;28;20488;-80
2022/04/08 02:26:58;;;;;;;5.50;1.30;;;7.20;99.90;;;;;;4217469;28;20484;-81
2022/04/08 02:29:00;;;;;;;2.30;1.10;;;7.20;99.90;;;;;;4215762;28;20516;-81
2022/04/08 02:31:04;;;;;;;4.73;1.17;;;7.20;99.90;;;;;;4217251;28;20494;-81
2022/04/08 02:33:06;;;;;;;3.37;1.20;;;7.20;99.90;;;;;;4212080;28;20487;-81
2022/04/08 02:35:08;;;;;;;3.43;1.03;;;7.10;99.90;;;;;;4226129;28;20447;-81
2022/04/08 02:37:10;;;;;;;4.80;1.47;;;7.10;99.90;;;;;;4224880;28;20513;-79
2022/04/08 02:39:12;;;;;;;1.97;1.00;;;7.10;99.90;;;;;;4221490;28;20455;-78
2022/04/08 02:41:14;;;;;;;1.50;1.00;;;7.10;99.90;;;;;;4216465;28;20476;-78
2022/04/08 02:43:16;;;;;;;3.73;1.10;;;7.10;99.90;;;;;;4216139;28;20486;-78
2022/04/08 02:45:18;;;;;;;5.50;1.30;;;7.10;99.90;;;;;;4218793;28;20512;-81
2022/04/08 02:47:21;;;;;;;3.20;1.20;;;7.10;99.90;;;;;;4221352;28;20961;-82
2022/04/08 02:49:22;;;;;;;5.40;1.67;;;7.10;99.90;;;;;;4208576;28;20851;-80
2022/04/08 02:51:24;;;;;;;3.63;1.20;;;7.10;99.90;;;;;;4215255;28;20804;-78
2022/04/08 02:53:26;;;;;;;2.77;1.37;;;7.10;99.90;;;;;;4212619;28;20491;-81
2022/04/08 02:55:28;;;;;;;4.77;1.43;;;7.10;99.90;;;;;;4217297;28;20459;-80
2022/04/08 02:57:30;;;;;;;6.33;1.43;;;7.10;99.90;;;;;;4208915;28;20472;-80
2022/04/08 02:59:31;;;;;;;3.73;1.33;;;7.10;99.90;;;;;;4212567;28;20814;-81
2022/04/08 03:01:33;;;;;;;5.07;1.60;;;7.10;99.90;;;;;;4218675;28;20971;-81
2022/04/08 03:03:36;;;;;;;3.90;1.60;;;7.10;99.90;;;;;;4216508;28;20479;-80
2022/04/08 03:05:38;;;;;;;8.40;1.60;;;7.10;99.90;;;;;;4211591;28;20561;-81
2022/04/08 03:07:40;;;;;;;6.47;1.57;;;7.10;99.90;;;;;;4214763;28;20461;-81
2022/04/08 03:09:42;;;;;;;3.67;1.40;;;7.10;99.90;;;;;;4215157;28;20455;-79
2022/04/08 03:11:44;;;;;;;3.80;1.40;;;7.10;99.90;;;;;;4215512;28;20521;-80
2022/04/08 03:13:45;;;;;;;3.63;1.50;;;7.10;99.90;;;;;;4208436;28;20518;-80
2022/04/08 03:15:47;;;;;;;4.13;1.40;;;7.10;99.90;;;;;;4217676;28;20526;-81
2022/04/08 03:17:51;;;;;;;3.27;1.30;;;7.10;99.90;;;;;;4220672;28;20468;-80
2022/04/08 03:19:54;;;;;;;4.37;1.70;;;7.10;99.90;;;;;;4224882;28;20508;-81
2022/04/08 03:21:56;;;;;;;7.37;1.63;;;7.10;99.90;;;;;;4219683;28;21160;-80
2022/04/08 03:23:58;;;;;;;4.20;1.33;;;7.10;99.90;;;;;;4205880;28;20829;-81
2022/04/08 03:26:00;;;;;;;2.47;1.40;;;7.10;99.90;;;;;;4215724;28;20488;-81
2022/04/08 03:28:02;;;;;;;3.17;1.40;;;7.10;99.90;;;;;;4220032;28;20444;-80
2022/04/08 03:30:04;;;;;;;4.53;1.80;;;7.20;99.90;;;;;;4219794;28;20462;-80
2022/04/08 03:32:07;;;;;;;2.37;1.50;;;7.00;99.90;;;;;;4216570;28;20525;-80
2022/04/08 03:34:08;;;;;;;4.83;2.07;;;7.00;99.90;;;;;;4231365;28;20504;-82
2022/04/08 03:36:11;;;;;;;5.20;2.00;;;7.00;99.90;;;;;;4219784;28;20460;-81
2022/04/08 03:38:13;;;;;;;3.60;1.80;;;7.00;99.90;;;;;;4218991;28;20453;-81
2022/04/08 03:40:15;;;;;;;3.63;1.73;;;7.00;99.90;;;;;;4218485;28;20452;-81
2022/04/08 03:42:17;;;;;;;3.73;1.73;;;7.00;99.90;;;;;;4200760;28;20540;-80
2022/04/08 03:44:18;;;;;;;3.30;1.47;;;7.00;99.90;;;;;;4201291;28;20889;-80
2022/04/08 03:46:20;;;;;;;3.57;1.53;;;7.00;99.90;;;;;;4213606;28;21057;-80
2022/04/08 03:48:22;;;;;;;4.00;1.40;;;7.00;99.90;;;;;;4215119;28;20831;-80
2022/04/08 03:50:24;;;;;;;2.10;1.60;;;7.00;99.90;;;;;;4217409;28;20946;-80
2022/04/08 03:52:32;;;;;;;3.07;1.60;;;7.00;99.90;;;;;;4217209;28;20540;-82
2022/04/08 03:54:33;;;;;;;4.73;1.70;;;7.00;99.90;;;;;;4223796;28;20468;-82
2022/04/08 03:56:35;;;;;;;5.43;2.00;;;7.00;99.90;;;;;;4213481;28;20468;-81
2022/04/08 03:58:37;;;;;;;8.97;2.13;;;7.00;99.90;;;;;;4215399;28;20468;-82
2022/04/08 04:00:40;;;;;;;3.07;1.77;;;7.00;99.90;;;;;;4221747;28;20452;-82
2022/04/08 04:02:41;;;;;;;4.20;1.80;;;7.10;99.90;;;;;;4210695;28;20473;-82
2022/04/08 04:04:43;;;;;;;6.90;2.00;;;7.10;99.90;;;;;;4215254;28;20472;-82
2022/04/08 04:06:45;;;;;;;2.20;1.50;;;7.10;99.90;;;;;;4217187;28;20513;-79
2022/04/08 04:08:48;;;;;;;4.67;1.70;;;7.10;99.90;;;;;;4216951;28;20459;-80
2022/04/08 04:10:49;;;;;;;3.00;1.50;;;7.10;99.90;;;;;;4217613;28;20536;-81
2022/04/08 04:12:52;;;;;;;7.00;1.87;;;7.10;99.90;;;;;;4217325;28;20468;-82
2022/04/08 04:14:54;;;;;;;2.67;1.50;;;7.70;99.90;;;;;;4211521;28;20498;-79
2022/04/08 04:16:56;;;;;;;3.43;1.53;;;7.10;99.90;;;;;;4207542;28;20527;-79
2022/04/08 04:18:58;;;;;;;5.77;1.47;;;7.10;99.90;;;;;;4211916;28;20475;-80
2022/04/08 04:20:59;;;;;;;4.63;2.23;;;7.10;99.90;;;;;;4218481;28;21040;-79
2022/04/08 04:23:01;;;;;;;6.07;2.17;;;7.10;99.90;;;;;;4209142;28;20492;-80
2022/04/08 04:25:05;;;;;;;2.10;1.50;;;7.10;99.90;;;;;;4207067;28;20498;-79
2022/04/08 04:27:07;;;;;;;5.50;1.83;;;7.10;99.90;;;;;;4212783;28;21013;-80
2022/04/08 04:29:10;;;;;;;6.87;1.77;;;7.10;99.90;;;;;;4219482;28;20449;-80
2022/04/08 04:31:12;;;;;;;4.07;1.70;;;7.10;99.90;;;;;;4221986;28;20483;-82
2022/04/08 04:33:14;;;;;;;4.23;1.97;;;7.10;99.90;;;;;;4220263;28;20518;-83
2022/04/08 04:35:15;;;;;;;6.20;1.80;;;7.10;99.90;;;;;;4218516;28;20508;-83
2022/04/08 04:37:17;;;;;;;3.50;1.90;;;7.10;99.90;;;;;;4209934;28;20457;-81
2022/04/08 04:39:19;;;;;;;4.13;1.97;;;7.10;99.90;;;;;;4208833;28;20460;-80
2022/04/08 04:41:22;;;;;;;4.60;1.83;;;7.10;99.90;;;;;;4205288;28;20460;-82
2022/04/08 04:43:24;;;;;;;3.53;1.80;;;7.10;99.90;;;;;;4212655;28;20492;-82
2022/04/08 04:45:25;;;;;;;5.37;1.83;;;7.10;99.90;;;;;;4212015;28;20490;-82
2022/04/08 04:47:27;;;;;;;2.40;1.50;;;7.10;99.90;;;;;;4209029;28;20465;-82
2022/04/08 04:49:29;;;;;;;5.27;1.90;;;7.10;99.90;;;;;;4212856;28;20461;-82
2022/04/08 04:51:30;;;;;;;2.73;1.47;;;7.30;99.90;;;;;;4204555;28;20504;-82
2022/04/08 04:53:32;;;;;;;9.10;1.80;;;7.10;99.90;;;;;;4206665;28;20506;-82
2022/04/08 04:55:34;;;;;;;4.90;1.73;;;7.10;99.90;;;;;;4206558;28;20457;-82
2022/04/08 04:57:39;;;;;;;4.47;1.53;;;7.10;99.90;;;;;;4214365;28;20483;-83
2022/04/08 04:59:40;;;;;;;5.20;1.43;;;7.10;99.90;;;;;;4213386;28;20517;-83
2022/04/08 05:01:42;;;;;;;3.73;1.57;;;7.10;99.90;;;;;;4210197;28;20454;-82
2022/04/08 05:03:45;;;;;;;3.63;1.50;;;7.10;99.90;;;;;;4211197;28;20502;-82
2022/04/08 05:05:48;;;;;;;1.87;1.23;;;7.20;99.90;;;;;;4212254;28;20521;-82
2022/04/08 05:07:49;;;;;;;2.63;1.37;;;7.20;99.90;;;;;;4209097;28;20460;-82
2022/04/08 05:09:51;;;;;;;5.03;1.77;;;7.20;99.90;;;;;;4216002;28;20972;-82
2022/04/08 05:11:53;;;;;;;4.40;1.40;;;7.20;99.90;;;;;;4215461;28;20456;-80
2022/04/08 05:13:59;;;;;;;4.67;1.33;;;7.20;99.90;;;;;;4216234;28;20907;-82
2022/04/08 05:16:02;;;;;;;3.87;1.60;;;7.20;99.90;;;;;;4211352;28;20534;-82
2022/04/08 05:18:04;;;;;;;3.80;1.40;;;7.20;99.90;;;;;;4210462;28;20453;-81
2022/04/08 05:20:07;;;;;;;3.73;1.90;;;7.20;99.90;;;;;;4212893;28;20828;-85
2022/04/08 05:22:09;;;;;;;3.97;1.63;;;7.20;99.90;;;;;;4215615;28;20452;-81
2022/04/08 05:24:11;;;;;;;7.63;1.40;;;7.30;99.90;;;;;;4212886;28;20954;-81
2022/04/08 05:26:12;;;;;;;5.23;1.60;;;7.30;99.90;;;;;;4209687;28;20514;-81
2022/04/08 05:28:15;;;;;;;4.47;1.40;;;7.30;99.90;;;;;;4201198;28;20491;-81
2022/04/08 05:30:18;;;;;;;3.50;1.23;;;7.30;99.90;;;;;;4208132;28;20946;-80
2022/04/08 05:32:21;;;;;;;3.73;2.03;;;7.30;99.90;;;;;;4206905;28;20493;-81
2022/04/08 05:34:23;;;;;;;2.57;1.50;;;7.30;99.90;;;;;;4213699;28;20577;-81
2022/04/08 05:36:25;;;;;;;4.27;1.80;;;7.30;99.90;;;;;;4202972;28;20468;-81
2022/04/08 05:38:27;;;;;;;2.13;1.60;;;7.30;99.90;;;;;;4204123;28;21071;-80
2022/04/08 05:40:28;;;;;;;6.53;1.70;;;7.30;99.90;;;;;;4213029;28;20451;-81
2022/04/08 05:42:30;;;;;;;3.47;1.70;;;7.30;99.90;;;;;;4215574;28;20886;-79
2022/04/08 05:44:32;;;;;;;3.63;1.97;;;7.30;99.90;;;;;;4210961;28;20536;-79
2022/04/08 05:46:35;;;;;;;3.77;1.43;;;7.30;99.90;;;;;;4204349;28;21006;-79
2022/04/08 05:48:37;;;;;;;4.20;1.70;;;7.30;99.90;;;;;;4201935;28;20458;-79
2022/04/08 05:50:41;;;;;;;2.43;1.50;;;7.30;99.90;;;;;;4211821;28;20554;-79
2022/04/08 05:52:43;;;;;;;3.50;1.60;;;7.30;99.90;;;;;;4196413;28;20462;-81
2022/04/08 05:54:45;;;;;;;4.47;1.80;;;7.30;99.90;;;;;;4200098;28;20449;-81
2022/04/08 05:56:47;;;;;;;3.87;1.60;;;7.30;99.90;;;;;;4212491;28;20483;-82
2022/04/08 05:58:48;;;;;;;5.07;1.67;;;7.60;99.90;;;;;;4209112;28;20452;-79
2022/04/08 06:00:50;;;;;;;2.00;1.47;;;7.30;99.90;;;;;;4207242;28;20460;-78
2022/04/08 06:02:56;;;;;;;3.30;1.27;;;7.20;99.90;;;;;;4209388;28;20802;-78
2022/04/08 06:04:58;;;;;;;3.43;1.60;;;7.20;99.90;;;;;;4211096;28;20471;-77
2022/04/08 06:07:00;;;;;;;3.50;1.60;;;7.30;99.90;;;;;;4207937;28;20924;-78
2022/04/08 06:09:04;;;;;;;4.50;1.70;;;7.40;99.90;;;;;;4213700;28;21292;-80
2022/04/08 06:11:06;;;;;;;4.50;1.40;;;7.30;99.90;;;;;;4203035;28;20466;-79
2022/04/08 06:13:10;;;;;;;5.37;1.57;;;7.30;99.90;;;;;;4215526;28;20540;-79
2022/04/08 06:15:11;;;;;;;4.43;1.70;;;7.30;99.90;;;;;;4216096;28;20483;-80
2022/04/08 06:17:13;;;;;;;6.27;1.80;;;7.30;99.90;;;;;;4215683;28;20455;-78
2022/04/08 06:19:16;;;;;;;7.00;1.40;;;7.30;99.90;;;;;;4211889;28;20570;-79
2022/04/08 06:21:18;;;;;;;3.20;1.40;;;7.30;99.90;;;;;;4208125;28;20446;-79
2022/04/08 06:23:20;;;;;;;2.10;1.20;;;7.30;99.90;;;;;;4218662;28;20469;-80
2022/04/08 06:25:23;;;;;;;2.57;1.00;;;7.40;99.90;;;;;;4214803;28;20456;-78
2022/04/08 06:27:25;;;;;;;2.40;1.07;;;7.30;99.90;;;;;;4211314;28;20493;-78
2022/04/08 06:29:26;;;;;;;2.97;0.90;;;7.60;99.90;;;;;;4208393;28;20465;-78
2022/04/08 06:31:29;;;;;;;2.80;0.80;;;7.40;99.90;;;;;;4205672;28;20504;-78
2022/04/08 06:33:31;;;;;;;2.00;0.80;;;7.40;99.90;;;;;;4213683;28;20547;-78
2022/04/08 06:35:34;;;;;;;2.93;0.70;;;7.40;99.90;;;;;;4210819;28;20546;-79
2022/04/08 06:37:36;;;;;;;4.77;0.70;;;7.40;99.90;;;;;;4209568;28;20453;-78
2022/04/08 06:39:38;;;;;;;2.10;0.70;;;7.40;99.90;;;;;;4207522;28;20542;-78
2022/04/08 06:41:40;;;;;;;1.27;0.73;;;7.40;99.90;;;;;;4216073;28;20457;-78
2022/04/08 06:43:42;;;;;;;2.17;0.70;;;7.40;99.90;;;;;;4207712;28;20499;-78
2022/04/08 06:45:43;;;;;;;0.97;0.60;;;7.50;99.90;;;;;;4204928;28;20539;-78
2022/04/08 06:47:47;;;;;;;3.93;0.50;;;7.50;99.20;;;;;;4211603;28;20530;-78
2022/04/08 06:49:48;;;;;;;1.37;0.70;;;7.50;98.30;;;;;;4208283;28;20815;-78
2022/04/08 06:51:53;;;;;;;1.63;0.63;;;7.50;97.40;;;;;;4202820;28;20520;-79
2022/04/08 06:53:55;;;;;;;3.47;1.00;;;8.40;97.50;;;;;;4209866;28;20473;-78
2022/04/08 06:55:56;;;;;;;1.20;0.60;;;7.60;96.20;;;;;;4216885;28;20457;-79
2022/04/08 06:57:59;;;;;;;1.00;0.60;;;7.50;96.70;;;;;;4209416;28;20459;-79
2022/04/08 07:00:03;;;;;;;2.40;0.40;;;7.50;93.60;;;;;;4205979;28;20452;-77
2022/04/08 07:02:05;;;;;;;2.63;0.50;;;8.50;92.90;;;;;;4204543;28;20498;-78
2022/04/08 07:04:07;;;;;;;1.37;0.73;;;7.60;90.40;;;;;;4208867;28;20580;-79
2022/04/08 07:06:09;;;;;;;1.00;0.60;;;7.60;91.10;;;;;;4206703;28;20511;-79
2022/04/08 07:08:12;;;;;;;3.00;0.60;;;7.60;91.90;;;;;;4211403;28;20521;-79
2022/04/08 07:10:14;;;;;;;1.53;0.50;;;7.70;90.60;;;;;;4212392;28;20478;-79
2022/04/08 07:12:18;;;;;;;0.87;0.40;;;7.70;90.40;;;;;;4207098;28;20516;-79
2022/04/08 07:14:20;;;;;;;1.93;0.60;;;7.80;89.70;;;;;;4210088;28;20489;-80
2022/04/08 07:16:23;;;;;;;2.30;0.70;;;9.10;87.30;;;;;;4228693;22;20592;-84
2022/04/08 07:18:25;;;;;;;2.93;0.87;;;7.90;85.70;;;;;;4204175;28;20455;-84
2022/04/08 07:20:27;;;;;;;1.77;0.73;;;8.00;86.00;;;;;;4202656;28;20462;-84
2022/04/08 07:22:29;;;;;;;3.20;0.70;;;7.90;85.50;;;;;;4199931;28;20461;-84
2022/04/08 07:24:32;;;;;;;2.33;0.73;;;7.90;86.40;;;;;;4200217;28;20463;-84
2022/04/08 07:26:34;;;;;;;2.40;0.80;;;7.90;86.30;;;;;;4203628;28;20505;-84
2022/04/08 07:28:36;;;;;;;3.17;0.80;;;8.00;88.10;;;;;;4191789;28;20490;-84
2022/04/08 07:30:38;;;;;;;1.80;0.87;;;8.00;89.60;;;;;;4201983;28;20468;-83
2022/04/08 07:32:40;;;;;;;4.07;0.90;;;8.00;89.00;;;;;;4200212;28;20455;-84
2022/04/08 07:34:43;;;;;;;2.17;0.93;;;8.00;85.60;;;;;;4199423;28;21008;-82
2022/04/08 07:36:45;;;;;;;2.53;1.00;;;8.10;85.80;;;;;;4203753;28;20526;-82
2022/04/08 07:38:47;;;;;;;0.90;0.70;;;8.10;87.40;;;;;;4205039;28;20452;-82
2022/04/08 07:40:50;;;;;;;3.30;1.10;;;8.10;82.60;;;;;;4209016;28;20486;-81
2022/04/08 07:42:52;;;;;;;2.40;0.73;;;8.10;77.60;;;;;;4209698;28;20462;-81
2022/04/08 07:44:54;;;;;;;1.53;0.60;;;8.50;75.20;;;;;;4205252;28;20466;-82
2022/04/08 07:46:56;;;;;;;4.07;0.80;;;8.20;75.50;;;;;;4218761;28;20501;-83
2022/04/08 07:48:57;;;;;;;2.50;0.70;;;8.10;76.00;;;;;;4205724;28;20459;-84
2022/04/08 07:51:02;;;;;;;1.97;0.70;;;8.10;75.90;;;;;;4202060;28;20467;-84
2022/04/08 07:53:05;;;;;;;4.13;0.60;;;8.00;78.10;;;;;;4206299;28;20458;-81
2022/04/08 07:55:07;;;;;;;3.80;0.90;;;8.10;79.20;;;;;;4197282;28;20455;-78
2022/04/08 07:57:15;;;;;;;3.53;0.57;;;8.10;79.10;;;;;;4206324;28;20485;-85
2022/04/08 07:59:17;;;;;;;2.10;0.50;;;8.20;79.00;;;;;;4210341;28;20454;-82
2022/04/08 08:01:19;;;;;;;0.50;0.43;;;8.20;79.40;;;;;;4199542;28;20458;-82
2022/04/08 08:03:21;;;;;;;0.47;0.47;;;8.20;75.00;;;;;;4197604;28;20633;-77
2022/04/08 08:05:23;;;;;;;4.67;0.80;;;8.30;73.60;;;;;;4209106;28;20503;-83
2022/04/08 08:07:25;;;;;;;2.13;0.63;;;8.30;73.80;;;;;;4210556;28;20473;-81
2022/04/08 08:09:27;;;;;;;5.37;0.80;;;8.30;70.30;;;;;;4204738;28;20461;-82
2022/04/08 08:11:29;;;;;;;4.67;1.73;;;8.20;70.10;;;;;;4195925;28;20559;-79
2022/04/08 08:13:32;;;;;;;4.53;1.40;;;8.00;71.40;;;;;;4196687;28;20454;-80
2022/04/08 08:15:36;;;;;;;5.53;0.70;;;8.20;72.30;;;;;;4198465;28;21014;-80
2022/04/08 08:17:42;;;;;;;3.53;0.83;;;8.10;71.80;;;;;;4201612;28;20452;-83
2022/04/08 08:19:44;;;;;;;1.17;0.57;;;8.10;72.40;;;;;;4207168;28;20454;-83
2022/04/08 08:21:46;;;;;;;5.70;0.70;;;8.10;74.50;;;;;;4206031;28;20803;-83
2022/04/08 08:23:48;;;;;;;3.53;0.60;;;8.10;75.20;;;;;;4205358;28;20477;-83
2022/04/08 08:25:50;;;;;;;3.37;0.90;;;8.10;76.60;;;;;;4206395;28;20512;-82
2022/04/08 08:27:55;;;;;;;2.13;0.73;;;8.00;77.00;;;;;;4205554;28;20551;-83
2022/04/08 08:29:58;;;;;;;2.10;0.67;;;8.00;77.90;;;;;;4205966;28;20550;-83
2022/04/08 08:31:59;;;;;;;2.50;0.80;;;8.00;80.60;;;;;;4204048;28;20459;-82
2022/04/08 08:34:01;;;;;;;3.40;1.03;;;8.00;81.20;;;;;;4205802;28;20484;-83
2022/04/08 08:36:03;;;;;;;3.13;0.80;;;8.00;81.20;;;;;;4199152;28;20551;-82
2022/04/08 08:38:05;;;;;;;2.90;0.60;;;8.00;83.10;;;;;;4207736;28;20454;-83
2022/04/08 08:40:09;;;;;;;2.10;0.77;;;8.00;82.60;;;;;;4209006;28;20452;-83
2022/04/08 08:42:12;;;;;;;3.23;0.83;;;8.00;77.80;;;;;;4211150;28;21018;-82
2022/04/08 08:44:16;;;;;;;3.67;1.30;;;8.20;75.50;;;;;;4204844;28;20520;-82
2022/04/08 08:46:21;;;;;;;1.77;0.80;;;8.00;73.10;;;;;;4206456;28;20486;-83
2022/04/08 08:48:24;;;;;;;4.07;1.07;;;8.10;71.60;;;;;;4206056;28;20494;-82
2022/04/08 08:50:26;;;;;;;0.60;0.60;;;8.10;70.80;;;;;;4207459;28;20960;-82
2022/04/08 08:52:29;;;;;;;2.63;0.90;;;8.80;72.40;;;;;;4204566;28;20475;-83
2022/04/08 08:54:32;;;;;;;2.87;0.67;;;8.10;72.80;;;;;;4200812;28;20465;-82
2022/04/08 08:56:37;;;;;;;1.47;0.60;;;8.30;71.50;;;;;;4209989;28;20537;-82
2022/04/08 08:58:39;;;;;;;1.93;0.60;;;8.10;72.30;;;;;;4207966;28;20454;-81
2022/04/08 09:00:41;;;;;;;2.03;0.80;;;8.10;71.00;;;;;;4204372;28;20473;-81
2022/04/08 09:02:48;;;;;;;3.73;0.80;;;8.10;71.70;;;;;;4198763;28;20458;-81
2022/04/08 09:04:50;;;;;;;2.17;0.80;;;8.10;73.00;;;;;;4202071;28;20466;-83
2022/04/08 09:06:52;;;;;;;3.43;0.83;;;8.10;73.60;;;;;;4191706;28;20909;-79
2022/04/08 09:08:58;;;;;;;3.20;0.67;;;8.30;75.60;;;;;;4199170;28;20458;-83
2022/04/08 09:11:00;;;;;;;1.90;0.77;;;8.30;77.40;;;;;;4199723;28;20461;-82
2022/04/08 09:13:03;;;;;;;3.07;0.60;;;8.30;76.50;;;;;;4194797;28;20448;-82
2022/04/08 09:15:06;;;;;;;4.60;0.80;;;8.40;74.70;;;;;;4212856;28;20476;-81
2022/04/08 09:17:10;;;;;;;2.47;1.00;;;8.40;68.40;;;;;;4205246;28;20488;-83
2022/04/08 09:19:14;;;;;;;2.17;0.73;;;8.50;66.70;;;;;;4206163;28;20452;-82
2022/04/08 09:21:22;;;;;;;5.77;1.00;;;8.60;64.30;;;;;;4205416;28;20467;-81
2022/04/08 09:23:24;;;;;;;4.27;1.10;;;9.30;63.70;;;;;;4197609;28;20486;-83
2022/04/08 09:25:27;;;;;;;2.87;0.90;;;8.70;63.30;;;;;;4206540;28;20495;-82
2022/04/08 09:27:34;;;;;;;1.40;0.70;;;8.80;64.00;;;;;;4202888;28;20512;-83
2022/04/08 09:29:36;;;;;;;4.50;0.60;;;8.80;65.30;;;;;;4198541;28;21153;-82
2022/04/08 09:31:37;;;;;;;3.10;0.97;;;8.90;65.80;;;;;;4194403;28;20444;-82
2022/04/08 09:33:48;;;;;;;4.70;1.20;;;8.90;64.50;;;;;;4208590;28;20466;-82
2022/04/08 09:35:55;;;;;;;5.20;0.90;;;9.00;64.00;;;;;;4215733;28;20480;-82
2022/04/08 09:38:01;;;;;;;1.80;0.70;;;9.00;64.00;;;;;;4209052;28;20471;-81
2022/04/08 09:40:07;;;;;;;2.90;1.10;;;9.10;63.50;;;;;;4210414;28;20463;-82
2022/04/08 09:42:09;;;;;;;2.47;0.87;;;9.20;61.50;;;;;;4217303;28;20474;-82
2022/04/08 09:44:12;;;;;;;6.63;1.30;;;9.50;58.50;;;;;;4202661;28;20475;-82
2022/04/08 09:46:15;;;;;;;3.50;0.90;;;9.60;58.50;;;;;;4210615;28;20495;-82
2022/04/08 09:48:17;;;;;;;2.97;0.87;;;9.40;58.60;;;;;;4209481;28;20480;-82
2022/04/08 09:50:19;;;;;;;6.23;0.97;;;9.40;58.00;;;;;;4206867;28;20444;-82
2022/04/08 09:52:24;;;;;;;3.83;0.90;;;9.40;57.50;;;;;;4207667;28;20471;-83
2022/04/08 09:54:28;;;;;;;6.83;1.20;;;9.40;57.10;;;;;;4193649;28;20476;-83
2022/04/08 09:56:30;;;;;;;6.87;0.90;;;9.10;55.70;;;;;;4191163;28;20480;-81
2022/04/08 09:58:36;;;;;;;5.93;0.90;;;9.40;55.60;;;;;;4207248;28;20451;-83
2022/04/08 10:00:39;;;;;;;3.10;0.70;;;9.40;54.90;;;;;;4202938;28;21004;-82
2022/04/08 10:02:44;;;;;;;2.40;0.80;;;9.40;55.30;;;;;;4202522;28;20437;-82
2022/04/08 10:04:46;;;;;;;6.13;1.20;;;9.40;56.30;;;;;;4199759;28;21226;-83
2022/04/08 10:06:48;;;;;;;4.20;0.80;;;9.50;56.80;;;;;;4208838;28;20451;-83
2022/04/08 10:08:52;;;;;;;6.07;0.77;;;9.60;56.90;;;;;;4201069;28;20768;-83
2022/04/08 10:11:05;;;;;;;3.80;1.00;;;9.60;56.10;;;;;;4196212;28;20216;-83
2022/04/08 10:13:37;;;;;;;1.93;0.70;;;9.70;55.50;;;;;;4216347;28;20526;-83
2022/04/08 10:15:42;;;;;;;3.40;1.00;;;9.70;54.20;;;;;;4179782;28;20476;-83
2022/04/08 10:17:45;;;;;;;1.53;0.80;;;9.80;53.80;;;;;;4196616;28;20213;-83
2022/04/08 10:19:47;;;;;;;5.63;0.93;;;9.80;52.70;;;;;;4212357;28;20454;-83
2022/04/08 10:21:52;;;;;;;4.73;1.00;;;9.80;51.80;;;;;;4214147;28;20221;-83
2022/04/08 10:23:56;;;;;;;1.50;0.80;;;9.80;52.20;;;;;;4198089;28;20495;-82
2022/04/08 10:26:02;;;;;;;4.27;0.90;;;9.80;52.30;;;;;;4205734;28;20240;-83
2022/04/08 10:28:05;;;;;;;5.67;1.10;;;9.80;52.00;;;;;;4206638;28;20229;-83
2022/04/08 10:30:12;;;;;;;3.53;0.73;;;9.80;51.80;;;;;;4205511;28;20470;-84
2022/04/08 10:32:15;;;;;;;4.43;0.90;;;9.90;51.30;;;;;;4204727;28;20487;-83
2022/04/08 10:34:19;;;;;;;6.13;1.10;;;10.00;51.50;;;;;;4205771;28;20366;-83
2022/04/08 10:36:31;;;;;;;4.13;1.00;;;9.80;51.10;;;;;;4200399;28;20480;-86
2022/04/08 10:38:43;;;;;;;2.63;0.80;;;9.80;51.40;;;;;;4197059;28;20842;-84
2022/04/08 10:40:54;;;;;;;3.87;1.00;;;9.90;51.80;;;;;;4196156;28;20634;-80
2022/04/08 10:42:57;;;;;;;4.47;1.00;;;10.10;51.60;;;;;;4199356;28;20209;-85
2022/04/08 10:45:05;;;;;;;2.90;1.00;;;10.30;51.40;;;;;;4199246;28;20220;-84
2022/04/08 10:47:13;;;;;;;4.00;1.10;;;10.00;51.20;;;;;;4206657;28;20223;-83